Time;durP1;ratioP1;P1;durP2;ratioP2;P2;SDS_P1;SDS_P2;PMS_P1;PMS_P2;Temp;Humidity;BMP_temperature;BMP_pressure;BME280_temperature;BME280_humidity;BME280_pressure;Samples;Min_cycle;Max_cycle;Signal;HPM_P1;HPM_P2
2021/01/14 00:00:21;;;;;;;7.97;2.03;;;;;;;-0.18;90.85;97088.28;4913972;29;20174;-80
2021/01/14 00:02:47;;;;;;;1.17;1.17;;;;;;;-0.19;91.06;97097.09;4911285;29;20536;-81
2021/01/14 00:05:13;;;;;;;1.40;1.10;;;;;;;-0.20;91.53;97090.13;4901103;29;20030;-80
2021/01/14 00:07:39;;;;;;;5.22;2.05;;;;;;;-0.15;92.79;97098.72;4917125;29;20181;-80
2021/01/14 00:10:07;;;;;;;3.72;1.55;;;;;;;-0.28;92.70;97094.72;4901424;29;20488;-80
2021/01/14 00:12:33;;;;;;;1.52;1.40;;;;;;;-0.33;94.25;97093.97;4917066;29;20388;-80
2021/01/14 00:14:59;;;;;;;1.48;1.25;;;;;;;-0.34;94.33;97081.75;4901395;29;20028;-80
2021/01/14 00:17:25;;;;;;;2.83;2.55;;;;;;;-0.46;94.73;97097.84;4917161;29;20039;-80
2021/01/14 00:19:51;;;;;;;1.65;1.55;;;;;;;-0.62;96.78;97082.47;4901307;29;20032;-80
2021/01/14 00:22:16;;;;;;;2.72;2.08;;;;;;;-0.55;97.09;97101.53;4916726;29;20036;-80
2021/01/14 00:24:42;;;;;;;2.22;1.52;;;;;;;-0.59;96.98;97089.41;4900898;29;20058;-80
2021/01/14 00:27:11;;;;;;;1.17;0.90;;;;;;;-0.51;96.34;97090.06;4916552;29;20123;-80
2021/01/14 00:29:37;;;;;;;1.35;1.15;;;;;;;-0.35;93.45;97096.66;4916848;29;20392;-80
2021/01/14 00:32:03;;;;;;;1.13;1.13;;;;;;;-0.23;94.07;97100.69;4901112;29;20032;-80
2021/01/14 00:34:29;;;;;;;2.85;2.33;;;;;;;-0.33;94.73;97093.97;4916815;29;20035;-80
2021/01/14 00:39:39;;;;;;;3.15;1.85;;;;;;;-0.38;96.34;97087.97;4932712;29;20112;-80
2021/01/14 00:42:04;;;;;;;3.25;1.48;;;;;;;-0.27;94.47;97089.41;4901462;29;20130;-80
2021/01/14 00:44:30;;;;;;;1.80;1.65;;;;;;;-0.29;94.43;97091.22;4934863;29;20035;-80
2021/01/14 00:46:56;;;;;;;2.47;2.03;;;;;;;-0.34;95.17;97089.63;4904761;29;20061;-80
2021/01/14 00:49:23;;;;;;;1.67;1.58;;;;;;;-0.40;95.26;97092.41;4952321;29;20083;-80
2021/01/14 00:51:49;;;;;;;1.23;1.17;;;;;;;-0.51;95.98;97083.94;4920632;29;20107;-80
2021/01/14 00:54:15;;;;;;;7.03;3.30;;;;;;;-0.46;96.70;97088.16;4936043;29;20032;-80
2021/01/14 00:56:40;;;;;;;0.90;0.90;;;;;;;-0.42;96.69;97097.69;4936008;29;20027;-80
2021/01/14 00:59:07;;;;;;;3.92;3.20;;;;;;;-0.39;96.37;97094.13;4935841;29;20055;-80
2021/01/14 01:01:33;;;;;;;2.40;2.00;;;;;;;-0.41;96.43;97080.19;4903627;29;20040;-80
2021/01/14 01:04:00;;;;;;;1.20;1.20;;;;;;;-0.53;97.34;97075.25;4904576;29;20035;-81
2021/01/14 01:06:33;;;;;;;2.03;1.92;;;;;;;-0.62;97.69;97077.22;4935456;29;20042;-80
2021/01/14 01:08:58;;;;;;;1.48;1.38;;;;;;;-0.80;98.01;97066.34;4919901;29;20399;-80
2021/01/14 01:11:24;;;;;;;7.38;3.83;;;;;;;-0.87;99.44;97062.13;4903916;29;20043;-80
2021/01/14 01:13:50;;;;;;;2.88;2.67;;;;;;;-0.97;99.41;97064.13;4904295;29;20217;-80
2021/01/14 01:16:16;;;;;;;0.85;0.82;;;;;;;-0.99;99.16;97059.81;4935668;29;20526;-80
2021/01/14 01:18:42;;;;;;;1.27;1.23;;;;;;;-1.05;98.46;97045.09;4927637;29;20034;-80
2021/01/14 01:21:08;;;;;;;2.40;2.20;;;;;;;-1.02;99.11;97055.50;4919885;29;20031;-80
2021/01/14 01:23:34;;;;;;;1.63;1.45;;;;;;;-1.06;98.73;97056.47;4904016;29;20115;-80
2021/01/14 01:25:59;;;;;;;5.47;1.70;;;;;;;-1.13;99.01;97053.13;4904053;29;20539;-80
2021/01/14 01:28:25;;;;;;;1.48;1.38;;;;;;;-1.25;99.43;97055.19;4935650;29;20106;-80
2021/01/14 01:30:50;;;;;;;0.80;0.80;;;;;;;-1.35;100.00;97057.16;4935346;29;20035;-80
2021/01/14 01:33:16;;;;;;;2.03;1.88;;;;;;;-1.39;100.00;97054.66;4935329;29;20037;-80
2021/01/14 01:35:41;;;;;;;0.77;0.77;;;;;;;-1.45;100.00;97049.53;4903658;29;20034;-80
2021/01/14 01:38:07;;;;;;;2.08;1.83;;;;;;;-1.49;100.00;97040.88;4919750;29;20077;-80
2021/01/14 01:40:33;;;;;;;0.68;0.68;;;;;;;-1.57;100.00;97040.22;4934829;29;20039;-80
2021/01/14 01:42:58;;;;;;;2.25;1.65;;;;;;;-1.63;100.00;97041.19;4918665;29;20498;-80
2021/01/14 01:45:24;;;;;;;0.93;0.93;;;;;;;-1.61;100.00;97042.91;4919000;29;20111;-80
2021/01/14 01:47:50;;;;;;;0.90;0.90;;;;;;;-1.63;100.00;97042.09;4934900;29;20031;-80
2021/01/14 01:50:18;;;;;;;1.35;1.15;;;;;;;-1.60;100.00;97045.53;4935009;29;20035;-80
2021/01/14 01:52:44;;;;;;;2.75;2.00;;;;;;;-1.55;100.00;97053.28;4918079;29;20035;-80
2021/01/14 01:55:10;;;;;;;2.42;1.85;;;;;;;-1.55;100.00;97043.66;4903378;29;20023;-80
2021/01/14 01:57:35;;;;;;;2.20;2.00;;;;;;;-1.54;100.00;97050.63;4919392;29;20039;-80
2021/01/14 02:00:01;;;;;;;3.90;2.42;;;;;;;-1.60;100.00;97037.66;4919667;29;20031;-80
2021/01/14 02:02:28;;;;;;;3.13;2.10;;;;;;;-1.65;100.00;97037.75;4903252;29;20110;-80
2021/01/14 02:04:55;;;;;;;3.97;1.67;;;;;;;-1.65;100.00;97037.75;4918978;29;20462;-80
2021/01/14 02:07:29;;;;;;;2.00;1.90;;;;;;;-1.69;100.00;97049.19;4934582;29;20118;-80
2021/01/14 02:09:56;;;;;;;3.00;2.80;;;;;;;-1.80;100.00;97043.34;4934597;29;20040;-79
2021/01/14 02:12:28;;;;;;;2.00;1.75;;;;;;;-1.86;100.00;97043.47;4934443;29;20480;-80
2021/01/14 02:14:53;;;;;;;;;;;;;;;-1.86;100.00;97051.31;4934561;29;20408;-79
2021/01/14 02:17:19;;;;;;;3.38;2.00;;;;;;;-2.01;100.00;97043.78;4934268;29;19922;-79
2021/01/14 02:19:47;;;;;;;7.07;2.83;;;;;;;-1.98;100.00;97043.72;4918704;29;20455;-80
2021/01/14 02:22:19;;;;;;;2.10;1.35;;;;;;;-2.06;100.00;97043.00;4934022;29;20419;-79
2021/01/14 02:25:07;;;;;;;2.50;1.83;;;;;;;-2.10;100.00;97038.75;4949557;29;20131;-79
2021/01/14 02:27:34;;;;;;;2.60;2.45;;;;;;;-2.19;100.00;97038.94;4935370;29;20120;-80
2021/01/14 02:30:00;;;;;;;0.65;0.65;;;;;;;-2.20;100.00;97034.59;4918161;29;20035;-80
2021/01/14 02:32:26;;;;;;;4.55;1.85;;;;;;;-2.19;100.00;97023.22;4918652;29;20415;-80
2021/01/14 02:34:51;;;;;;;0.75;0.75;;;;;;;-2.26;100.00;97014.63;4902602;29;20031;-79
2021/01/14 02:37:18;;;;;;;1.65;1.27;;;;;;;-2.23;100.00;97019.78;4902836;29;20043;-78
2021/01/14 02:39:43;;;;;;;1.90;1.55;;;;;;;-2.22;100.00;97013.69;4918158;29;20036;-81
2021/01/14 02:42:09;;;;;;;1.83;1.67;;;;;;;-2.11;100.00;97020.44;4902489;29;20032;-80
2021/01/14 02:44:34;;;;;;;1.45;1.25;;;;;;;-2.10;100.00;97012.56;4902187;29;20388;-81
2021/01/14 02:47:03;;;;;;;3.75;2.00;;;;;;;-2.16;100.00;97028.41;4902209;29;20063;-80
2021/01/14 02:49:32;;;;;;;1.05;1.05;;;;;;;-2.28;100.00;97039.13;4933896;29;20487;-80
2021/01/14 02:52:00;;;;;;;3.90;2.78;;;;;;;-2.25;100.00;97029.44;4922561;29;20035;-80
2021/01/14 02:54:27;;;;;;;1.58;1.48;;;;;;;-2.33;100.00;97027.84;4926750;29;20068;-80
2021/01/14 02:56:52;;;;;;;1.60;1.50;;;;;;;-2.39;100.00;97022.75;4948971;29;20046;-80
2021/01/14 02:59:18;;;;;;;1.70;1.60;;;;;;;-2.34;100.00;97026.16;4920234;29;20024;-80
2021/01/14 03:01:44;;;;;;;1.83;1.08;;;;;;;-2.35;100.00;97029.66;4916296;29;20026;-79
2021/01/14 03:04:09;;;;;;;2.15;1.95;;;;;;;-2.35;100.00;97027.03;4917832;29;20043;-80
2021/01/14 03:06:35;;;;;;;2.72;2.50;;;;;;;-2.42;100.00;97028.03;4917772;29;20032;-80
2021/01/14 03:09:01;;;;;;;0.98;0.98;;;;;;;-2.42;100.00;97030.66;4901941;29;20521;-80
2021/01/14 03:11:31;;;;;;;1.35;1.35;;;;;;;-2.43;100.00;97028.94;4933714;29;20043;-80
2021/01/14 03:13:57;;;;;;;2.83;2.40;;;;;;;-2.56;100.00;97022.22;4949410;29;20024;-80
2021/01/14 03:16:24;;;;;;;5.63;3.67;;;;;;;-2.41;100.00;97024.53;4917469;29;20035;-79
2021/01/14 03:18:50;;;;;;;4.28;2.70;;;;;;;-2.44;100.00;97017.63;4901834;29;20031;-80
2021/01/14 03:21:25;;;;;;;1.02;1.02;;;;;;;-2.53;100.00;97016.94;4914333;29;20115;-80
2021/01/14 03:23:52;;;;;;;1.08;0.85;;;;;;;-2.55;100.00;97016.94;4963465;28;20041;-80
2021/01/14 03:26:18;;;;;;;0.82;0.82;;;;;;;-2.53;100.00;97019.53;4922094;29;20043;-79
2021/01/14 03:28:44;;;;;;;1.98;1.83;;;;;;;-2.55;100.00;97013.50;4946901;29;20069;-79
2021/01/14 03:31:10;;;;;;;1.50;1.40;;;;;;;-2.54;100.00;97016.06;4917694;29;20484;-79
2021/01/14 03:33:37;;;;;;;2.40;2.22;;;;;;;-2.53;100.00;97009.94;4902050;29;20040;-79
2021/01/14 03:36:05;;;;;;;1.08;1.08;;;;;;;-2.67;100.00;97003.22;4917347;29;20031;-79
2021/01/14 03:38:35;;;;;;;1.55;1.45;;;;;;;-2.72;100.00;97010.31;4933602;29;20039;-79
2021/01/14 03:41:02;;;;;;;1.48;1.35;;;;;;;-2.68;100.00;97004.13;4916931;29;20031;-79
2021/01/14 03:43:28;;;;;;;2.63;2.42;;;;;;;-2.70;100.00;96998.06;4917580;29;20156;-79
2021/01/14 03:45:53;;;;;;;1.15;1.08;;;;;;;-2.79;100.00;96994.72;4901451;29;20097;-79
2021/01/14 03:48:19;;;;;;;6.40;2.13;;;;;;;-2.77;100.00;96997.34;4917028;29;20035;-80
2021/01/14 03:50:44;;;;;;;0.60;0.60;;;;;;;-2.83;100.00;96987.81;4901496;29;20035;-79
2021/01/14 03:53:10;;;;;;;3.40;2.97;;;;;;;-2.86;100.00;96987.88;4901556;29;20042;-79
2021/01/14 03:55:36;;;;;;;0.85;0.73;;;;;;;-2.85;100.00;96997.47;4917414;29;20028;-80
2021/01/14 03:58:01;;;;;;;4.55;3.10;;;;;;;-3.02;100.00;96985.59;4932521;29;20498;-79
2021/01/14 04:00:27;;;;;;;0.40;0.40;;;;;;;-3.03;100.00;96989.94;4932860;29;20126;-79
2021/01/14 04:02:52;;;;;;;1.45;1.35;;;;;;;-2.97;100.00;96991.59;4900906;29;20031;-79
2021/01/14 04:05:18;;;;;;;2.35;2.17;;;;;;;-2.95;100.00;96987.19;4916867;29;20380;-80
2021/01/14 04:07:43;;;;;;;2.50;2.15;;;;;;;-2.92;100.00;96977.53;4901324;29;20090;-79
2021/01/14 04:10:09;;;;;;;0.70;0.70;;;;;;;-2.98;100.00;96974.16;4900961;29;20024;-79
2021/01/14 04:12:35;;;;;;;0.98;0.70;;;;;;;-3.07;100.00;96969.09;4901310;29;20380;-80
2021/01/14 04:15:04;;;;;;;1.95;1.75;;;;;;;-3.04;100.00;96972.53;4901918;29;20036;-80
2021/01/14 04:17:30;;;;;;;0.63;0.63;;;;;;;-3.11;100.00;96970.94;4921065;29;20028;-79
2021/01/14 04:19:55;;;;;;;1.13;1.13;;;;;;;-3.28;100.00;96946.81;4904995;29;20583;-80
2021/01/14 04:22:21;;;;;;;0.95;0.95;;;;;;;-3.12;100.00;96973.56;4905404;29;20035;-79
2021/01/14 04:24:46;;;;;;;0.85;0.85;;;;;;;-3.24;100.00;96969.41;4920563;29;20111;-79
2021/01/14 04:27:12;;;;;;;1.20;1.13;;;;;;;-3.34;100.00;96968.72;4904938;29;20392;-80
2021/01/14 04:29:38;;;;;;;1.00;0.95;;;;;;;-3.37;100.00;96968.75;4920734;29;20091;-80
2021/01/14 04:32:03;;;;;;;1.13;1.10;;;;;;;-3.41;100.00;96961.84;4920381;29;20042;-80
2021/01/14 04:34:29;;;;;;;4.40;1.48;;;;;;;-3.49;100.00;96957.66;4904992;29;20468;-80
2021/01/14 04:36:59;;;;;;;1.00;1.00;;;;;;;-3.42;100.00;96964.50;4904817;29;20039;-80
2021/01/14 04:39:25;;;;;;;1.70;1.42;;;;;;;-3.47;100.00;96955.88;4920818;29;20039;-80
2021/01/14 04:42:05;;;;;;;1.35;1.27;;;;;;;-3.52;100.00;96952.47;4936745;29;20039;-80
2021/01/14 04:44:31;;;;;;;0.88;0.88;;;;;;;-3.51;100.00;96951.59;4905311;29;20444;-80
2021/01/14 04:47:03;;;;;;;3.75;2.03;;;;;;;-3.45;100.00;96954.09;4936250;29;20032;-80
2021/01/14 04:49:30;;;;;;;2.78;2.42;;;;;;;-3.54;100.00;96951.66;4905041;29;20402;-81
2021/01/14 04:52:04;;;;;;;1.08;1.08;;;;;;;-3.44;100.00;96961.03;4905186;29;20104;-82
2021/01/14 04:54:34;;;;;;;5.78;2.50;;;;;;;-3.39;100.00;96954.88;4920443;29;20129;-81
2021/01/14 04:57:27;;;;;;;4.03;2.40;;;;;;;-3.41;100.00;96946.16;4904478;29;20036;-81
2021/01/14 04:59:53;;;;;;;0.88;0.88;;;;;;;-3.34;100.00;96947.78;4902318;29;20128;-80
2021/01/14 05:02:23;;;;;;;1.70;1.60;;;;;;;-3.41;100.00;96942.69;4913757;29;20036;-80
2021/01/14 05:04:53;;;;;;;1.05;1.02;;;;;;;-3.38;100.00;96948.72;4901772;29;20032;-80
2021/01/14 05:07:33;;;;;;;2.88;2.45;;;;;;;-3.40;100.00;96950.53;4909511;29;20682;-81
2021/01/14 05:10:04;;;;;;;4.43;1.63;;;;;;;-3.47;100.00;96941.06;4912377;29;20031;-80
2021/01/14 05:12:32;;;;;;;3.45;2.45;;;;;;;-3.41;100.00;96948.78;4917209;29;20042;-79
2021/01/14 05:14:58;;;;;;;3.42;2.70;;;;;;;-3.36;100.00;96957.44;4905755;29;20135;-80
2021/01/14 05:17:24;;;;;;;1.00;1.00;;;;;;;-3.41;100.00;96951.41;4900906;29;20629;-80
2021/01/14 05:19:53;;;;;;;1.55;1.45;;;;;;;-3.51;100.00;96955.06;4919697;29;20114;-81
2021/01/14 05:22:22;;;;;;;3.13;2.53;;;;;;;-3.47;100.00;96948.88;4903662;29;20035;-80
2021/01/14 05:25:09;;;;;;;3.38;3.08;;;;;;;-3.53;100.00;96953.34;4892273;29;20051;-80
2021/01/14 05:27:47;;;;;;;9.57;4.50;;;;;;;-3.43;100.00;96947.09;4879002;29;20258;-80
2021/01/14 05:30:13;;;;;;;4.43;3.53;;;;;;;-3.40;100.00;96941.81;4896783;29;20465;-79
2021/01/14 05:32:41;;;;;;;1.40;1.35;;;;;;;-3.39;100.00;96918.28;4894513;29;20520;-80
2021/01/14 05:35:11;;;;;;;5.97;3.25;;;;;;;-3.37;100.00;96918.22;4886548;29;20119;-80
2021/01/14 05:37:42;;;;;;;1.85;1.75;;;;;;;-3.30;100.00;96922.47;4879344;29;20032;-81
2021/01/14 05:40:09;;;;;;;2.63;2.42;;;;;;;-3.28;100.00;96915.44;4887908;29;20405;-80
2021/01/14 05:42:34;;;;;;;4.85;4.25;;;;;;;-3.27;100.00;96911.97;4889439;29;20033;-80
2021/01/14 05:45:00;;;;;;;6.93;5.45;;;;;;;-3.19;100.00;96919.63;4870864;29;20108;-80
2021/01/14 05:47:27;;;;;;;1.35;1.33;;;;;;;-3.14;100.00;96916.06;4875050;29;20084;-80
2021/01/14 05:49:57;;;;;;;0.50;0.50;;;;;;;-3.10;100.00;96920.34;4887088;29;20037;-81
2021/01/14 05:52:24;;;;;;;2.55;2.35;;;;;;;-3.07;100.00;96917.66;4908243;29;20048;-80
2021/01/14 05:54:58;;;;;;;2.08;1.60;;;;;;;-2.98;100.00;96917.47;4885159;29;20120;-79
2021/01/14 05:57:29;;;;;;;1.30;1.27;;;;;;;-3.05;100.00;96928.97;4902261;29;20037;-80
2021/01/14 05:59:55;;;;;;;3.67;1.38;;;;;;;-3.16;100.00;96923.06;4879750;29;20408;-79
2021/01/14 06:02:31;;;;;;;4.95;2.15;;;;;;;-3.24;100.00;96924.09;4870648;29;20036;-80
2021/01/14 06:04:57;;;;;;;4.05;1.15;;;;;;;-3.18;100.00;96927.47;4866351;29;20043;-79
2021/01/14 06:07:24;;;;;;;1.08;1.05;;;;;;;-3.03;100.00;96942.00;4889084;29;20481;-79
2021/01/14 06:09:50;;;;;;;4.68;2.47;;;;;;;-3.02;100.00;96935.91;4896762;29;20391;-79
2021/01/14 06:12:16;;;;;;;0.88;0.88;;;;;;;-2.88;100.00;96937.34;4888831;29;20040;-81
2021/01/14 06:14:42;;;;;;;0.50;0.50;;;;;;;-2.89;100.00;96945.25;4896767;29;20035;-79
2021/01/14 06:17:11;;;;;;;0.52;0.52;;;;;;;-2.98;100.00;96950.63;4864575;29;20127;-80
2021/01/14 06:19:38;;;;;;;1.45;1.35;;;;;;;-3.03;100.00;96950.72;4877699;29;20048;-80
2021/01/14 06:22:04;;;;;;;2.65;2.45;;;;;;;-2.94;100.00;96953.16;4862161;29;20036;-81
2021/01/14 06:24:37;;;;;;;3.88;3.58;;;;;;;-2.83;100.00;96947.75;4895174;29;20052;-81
2021/01/14 06:27:06;;;;;;;2.67;2.47;;;;;;;-2.71;100.00;96941.41;4915628;29;20078;-81
2021/01/14 06:29:34;;;;;;;2.55;2.33;;;;;;;-2.60;99.84;96926.34;4934405;29;20063;-81
2021/01/14 06:32:12;;;;;;;3.95;3.13;;;;;;;-2.44;99.98;96938.22;4918807;29;20507;-81
2021/01/14 06:34:41;;;;;;;5.82;4.20;;;;;;;-2.39;100.00;96936.34;4934493;29;20031;-80
2021/01/14 06:37:21;;;;;;;8.95;6.03;;;;;;;-2.40;99.85;96929.41;4902739;29;20038;-79
2021/01/14 06:39:57;;;;;;;4.15;3.78;;;;;;;-2.27;100.00;96931.72;4914912;29;20407;-80
2021/01/14 06:42:26;;;;;;;11.15;6.25;;;;;;;-2.14;99.69;96929.69;4902406;29;20200;-79
2021/01/14 06:44:53;;;;;;;12.95;7.53;;;;;;;-2.07;99.61;96919.94;4899622;29;20400;-81
2021/01/14 06:47:32;;;;;;;8.40;5.63;;;;;;;-1.90;97.92;96925.63;4917805;29;20480;-80
2021/01/14 06:50:13;;;;;;;4.68;4.22;;;;;;;-1.75;96.71;96939.25;4902608;29;20082;-80
2021/01/14 06:52:49;;;;;;;176.02;74.20;;;;;;;-1.61;96.08;96927.59;4911430;29;20031;-80
2021/01/14 06:55:34;;;;;;;172.10;78.90;;;;;;;-1.48;95.52;96929.88;4918624;29;20460;-80
2021/01/14 06:58:14;;;;;;;176.45;75.03;;;;;;;-1.35;95.47;96936.50;4903824;29;20028;-80
2021/01/14 07:00:41;;;;;;;187.55;83.38;;;;;;;-1.22;97.13;96931.81;4902269;29;20396;-80
2021/01/14 07:03:13;;;;;;;247.30;114.38;;;;;;;-0.11;94.07;96940.94;4902418;29;20039;-80
2021/01/14 07:05:58;;;;;;;158.55;71.32;;;;;;;0.74;82.71;96935.56;4933308;29;20031;-81
2021/01/14 07:08:42;;;;;;;115.63;53.33;;;;;;;0.92;78.07;96931.50;4930105;29;20048;-80
2021/01/14 07:11:10;;;;;;;106.88;47.88;;;;;;;1.70;77.41;96926.91;4916240;29;20036;-80
2021/01/14 07:13:38;;;;;;;61.25;29.83;;;;;;;2.59;70.55;96919.00;4898820;29;20035;-80
2021/01/14 07:16:04;;;;;;;86.35;44.33;;;;;;;3.80;66.50;96921.66;4917588;29;20065;-79
2021/01/14 07:18:32;;;;;;;61.35;31.05;;;;;;;5.13;58.80;96921.44;4898947;29;20028;-80
2021/01/14 07:21:26;;;;;;;67.60;32.72;;;;;;;6.31;53.84;96915.13;4914378;29;20114;-81
2021/01/14 07:24:10;;;;;;;99.38;46.20;;;;;;;6.97;52.09;96910.47;4893096;29;20122;-80
2021/01/14 07:26:43;;;;;;;63.53;28.33;;;;;;;7.67;49.33;96900.94;4925353;29;20105;-80
2021/01/14 07:29:11;;;;;;;63.75;25.58;;;;;;;8.59;46.25;96921.78;4902682;29;20035;-79
2021/01/14 07:31:45;;;;;;;59.97;27.50;;;;;;;8.68;45.77;96915.84;4898611;29;20032;-80
2021/01/14 07:34:41;;;;;;;53.42;25.35;;;;;;;9.63;43.81;96908.56;4914657;29;20584;-80
2021/01/14 07:37:14;;;;;;;36.13;18.92;;;;;;;9.89;40.86;96898.78;4915082;29;20032;-80
2021/01/14 07:39:56;;;;;;;37.03;21.98;;;;;;;10.10;39.82;96891.94;4909910;29;20074;-81
2021/01/14 07:42:25;;;;;;;51.58;26.80;;;;;;;10.07;41.65;96908.16;4901452;29;20515;-82
2021/01/14 07:44:53;;;;;;;61.03;33.33;;;;;;;10.34;42.00;96907.13;4902061;29;20054;-80
2021/01/14 07:47:32;;;;;;;71.88;37.97;;;;;;;11.30;40.02;96919.63;4917134;29;20035;-80
2021/01/14 07:49:59;;;;;;;60.28;30.63;;;;;;;11.84;38.78;96916.47;4916870;29;20404;-80
2021/01/14 07:52:32;;;;;;;58.63;29.65;;;;;;;11.58;38.15;96915.72;4901608;29;20079;-82
2021/01/14 07:55:07;;;;;;;69.53;33.90;;;;;;;11.84;38.49;96916.47;4933313;29;20484;-81
2021/01/14 07:57:41;;;;;;;74.53;37.20;;;;;;;12.30;37.79;96932.50;4914077;29;20032;-77
2021/01/14 08:00:08;;;;;;;28.17;15.55;;;;;;;12.63;34.01;96927.13;4922964;29;20043;-76
2021/01/14 08:03:12;;;;;;;16.80;9.38;;;;;;;12.60;32.71;96913.09;4913777;29;20035;-78
2021/01/14 08:05:56;;;;;;;9.70;5.15;;;;;;;12.28;32.88;96905.78;4910692;29;20484;-76
2021/01/14 08:08:38;;;;;;;11.00;5.30;;;;;;;12.63;33.10;96915.53;4910889;29;20028;-76
2021/01/14 08:11:19;;;;;;;8.52;4.97;;;;;;;12.79;32.41;96919.56;4912372;29;20063;-76
2021/01/14 08:14:11;;;;;;;13.77;7.60;;;;;;;13.32;32.57;96908.97;4927028;29;20070;-76
2021/01/14 08:16:43;;;;;;;15.35;7.43;;;;;;;12.52;31.79;96909.19;4930857;29;20036;-86
2021/01/14 08:19:12;;;;;;;;;;;;;;;12.06;33.50;96910.28;4901501;29;20039;-85
2021/01/14 08:21:38;;;;;;;14.48;7.70;;;;;;;12.48;34.35;96910.44;4929612;29;19939;-87
2021/01/14 08:24:04;;;;;;;14.25;7.68;;;;;;;12.08;34.34;96901.16;4929133;29;20056;-87
2021/01/14 08:26:29;;;;;;;12.10;6.57;;;;;;;11.40;34.47;96896.56;4931498;29;20039;-86
2021/01/14 08:29:02;;;;;;;18.35;9.00;;;;;;;10.55;34.80;96883.31;4929382;29;20460;-86
2021/01/14 08:31:37;;;;;;;17.73;10.40;;;;;;;10.22;36.58;96891.09;4901446;29;20031;-85
2021/01/14 08:34:06;;;;;;;21.42;12.27;;;;;;;9.70;38.07;96884.03;4915733;29;20034;-86
2021/01/14 08:36:41;;;;;;;17.73;8.63;;;;;;;8.74;39.06;96872.81;4929555;29;20040;-88
2021/01/14 08:39:11;;;;;;;27.30;10.60;;;;;;;8.31;38.38;96857.88;4897129;29;20118;-88
2021/01/14 08:41:38;;;;;;;17.08;7.50;;;;;;;7.78;38.73;96835.47;4915238;29;20043;-86
2021/01/14 08:44:04;;;;;;;13.73;6.47;;;;;;;7.12;42.03;96811.19;4895714;29;20532;-86
2021/01/14 08:46:47;;;;;;;19.92;10.18;;;;;;;6.66;42.05;96799.75;4928814;29;20135;-86
2021/01/14 08:49:14;;;;;;;35.38;15.68;;;;;;;6.25;42.85;96785.34;4913813;29;20511;-86
2021/01/14 08:51:41;;;;;;;137.45;49.40;;;;;;;7.07;42.64;96781.38;4914404;29;20476;-86
2021/01/14 08:54:07;;;;;;;27.13;11.48;;;;;;;8.93;40.33;96765.78;4913140;29;20036;-86
2021/01/14 08:56:33;;;;;;;14.63;5.80;;;;;;;9.95;38.32;96760.28;4913635;29;20484;-85
2021/01/14 08:59:18;;;;;;;32.10;14.75;;;;;;;11.14;36.46;96766.50;4913490;29;20119;-87
2021/01/14 09:01:44;;;;;;;7.70;4.20;;;;;;;11.42;34.80;96757.19;4901873;29;20055;-87
2021/01/14 09:04:10;;;;;;;3.97;2.38;;;;;;;10.78;33.45;96739.88;4900798;29;20130;-86
2021/01/14 09:06:40;;;;;;;10.80;3.38;;;;;;;11.88;32.53;96735.69;4902468;29;20388;-86
2021/01/14 09:09:07;;;;;;;12.02;5.50;;;;;;;13.09;32.22;96739.03;4900804;29;20044;-87
2021/01/14 09:11:34;;;;;;;35.47;16.92;;;;;;;13.21;30.53;96727.25;4903341;29;20457;-86
2021/01/14 09:14:08;;;;;;;16.00;8.60;;;;;;;13.37;30.69;96721.41;4934994;29;20178;-86
2021/01/14 09:16:35;;;;;;;11.02;6.85;;;;;;;14.19;28.78;96701.50;4916375;29;20547;-87
2021/01/14 09:19:01;;;;;;;17.20;8.20;;;;;;;14.06;29.07;96700.91;4916526;29;20032;-87
2021/01/14 09:21:33;;;;;;;13.35;8.80;;;;;;;13.20;29.43;96696.00;4934087;29;20774;-87
2021/01/14 09:24:06;;;;;;;16.52;9.70;;;;;;;12.12;31.44;96704.22;4918099;29;20060;-87
2021/01/14 09:26:31;;;;;;;16.70;10.00;;;;;;;10.82;34.61;96693.22;4893409;29;20499;-89
2021/01/14 09:28:57;;;;;;;20.05;11.50;;;;;;;9.48;37.35;96702.28;4909378;29;20046;-85
2021/01/14 09:31:23;;;;;;;22.65;12.02;;;;;;;9.14;36.18;96695.78;4889785;29;20031;-85
2021/01/14 09:33:49;;;;;;;21.08;13.18;;;;;;;8.55;38.17;96691.06;4900093;29;20032;-87
2021/01/14 09:36:20;;;;;;;7.35;4.93;;;;;;;7.40;40.42;96698.63;4885488;29;20200;-86
2021/01/14 09:38:51;;;;;;;23.02;9.30;;;;;;;6.83;43.88;96685.34;4913178;29;20047;-86
2021/01/14 09:41:26;;;;;;;14.77;6.72;;;;;;;6.62;44.90;96660.06;4880477;29;20029;-87
2021/01/14 09:43:54;;;;;;;13.15;6.45;;;;;;;6.46;44.68;96656.66;4911676;29;20036;-87
2021/01/14 09:46:21;;;;;;;16.27;8.40;;;;;;;6.30;46.47;96638.13;4893366;29;20055;-87
2021/01/14 09:48:49;;;;;;;26.45;11.45;;;;;;;6.57;47.38;96634.72;4880170;29;20029;-85
2021/01/14 09:51:14;;;;;;;19.30;9.07;;;;;;;6.65;45.01;96620.03;4886096;29;20032;-86
2021/01/14 09:53:45;;;;;;;32.88;13.15;;;;;;;7.02;45.57;96622.13;4880109;29;20500;-86
2021/01/14 09:56:17;;;;;;;21.55;10.30;;;;;;;6.95;45.77;96610.16;4903722;29;20115;-86
2021/01/14 09:58:45;;;;;;;17.35;8.48;;;;;;;7.44;45.82;96607.06;4895713;29;20059;-86
2021/01/14 10:01:12;;;;;;;29.80;13.45;;;;;;;8.28;43.09;96605.84;4895711;29;20500;-86
2021/01/14 10:03:38;;;;;;;35.28;19.75;;;;;;;9.27;40.16;96603.25;4900376;29;20043;-88
2021/01/14 10:06:04;;;;;;;35.80;15.48;;;;;;;10.11;38.02;96600.59;4895463;29;20037;-86
2021/01/14 10:08:31;;;;;;;38.88;18.50;;;;;;;10.38;38.79;96612.84;4895214;29;20111;-87
2021/01/14 10:10:57;;;;;;;27.92;12.75;;;;;;;10.39;38.87;96598.53;4879517;29;20037;-87
2021/01/14 10:13:23;;;;;;;39.47;18.10;;;;;;;9.74;40.06;96581.13;4893672;29;20036;-86
2021/01/14 10:15:48;;;;;;;17.58;8.32;;;;;;;8.24;42.61;96590.16;4902253;29;20412;-86
2021/01/14 10:18:27;;;;;;;18.85;10.10;;;;;;;7.80;44.31;96582.50;4879299;29;20497;-86
2021/01/14 10:21:03;;;;;;;26.17;14.15;;;;;;;7.58;43.89;96575.06;4909390;29;20038;-87
2021/01/14 10:23:29;;;;;;;27.40;14.60;;;;;;;6.98;44.38;96571.91;4910646;29;20397;-86
2021/01/14 10:25:55;;;;;;;22.63;11.70;;;;;;;6.88;45.06;96576.09;4915186;29;20035;-86
2021/01/14 10:28:24;;;;;;;18.70;10.10;;;;;;;6.87;45.18;96567.25;4929880;29;20036;-88
2021/01/14 10:30:51;;;;;;;21.00;10.68;;;;;;;6.98;46.03;96561.28;4913610;29;20039;-87
2021/01/14 10:33:17;;;;;;;16.95;7.47;;;;;;;7.04;44.61;96560.91;4913701;29;20067;-84
2021/01/14 10:35:43;;;;;;;17.80;10.13;;;;;;;7.27;44.52;96564.72;4929957;29;20493;-85
2021/01/14 10:38:16;;;;;;;31.65;17.38;;;;;;;7.39;44.36;96551.47;4931396;29;20516;-86
2021/01/14 10:40:49;;;;;;;17.10;10.05;;;;;;;7.34;45.24;96542.94;4897580;29;20512;-86
2021/01/14 10:43:36;;;;;;;15.85;8.30;;;;;;;6.91;45.63;96544.88;4914231;29;20411;-85
2021/01/14 10:46:02;;;;;;;26.75;13.68;;;;;;;6.81;44.73;96554.38;4911021;29;20516;-86
2021/01/14 10:48:41;;;;;;;273.30;112.03;;;;;;;6.75;47.38;96554.75;4896327;29;20032;-87
2021/01/14 10:51:07;;;;;;;50.70;27.35;;;;;;;6.60;47.62;96563.69;4898005;29;20460;-85
2021/01/14 10:53:34;;;;;;;18.95;8.00;;;;;;;6.58;45.73;96570.03;4895136;29;20040;-87
2021/01/14 10:56:13;;;;;;;50.80;21.95;;;;;;;6.60;46.98;96561.03;4915692;29;20020;-86
2021/01/14 10:58:43;;;;;;;21.95;10.40;;;;;;;6.40;45.29;96545.44;4905570;29;20056;-86
2021/01/14 11:01:22;;;;;;;24.23;9.63;;;;;;;6.51;47.67;96556.28;4912718;29;20036;-87
2021/01/14 11:03:48;;;;;;;24.55;11.32;;;;;;;6.59;45.59;96540.72;4929217;29;20064;-85
2021/01/14 11:06:39;;;;;;;20.40;8.20;;;;;;;6.61;45.90;96552.13;4914625;29;20416;-86
2021/01/14 11:09:10;;;;;;;91.97;33.53;;;;;;;6.45;42.83;96543.38;4898722;29;20158;-86
2021/01/14 11:11:36;;;;;;;21.08;9.98;;;;;;;6.33;46.49;96557.41;4931001;29;20099;-85
2021/01/14 11:14:02;;;;;;;20.90;8.68;;;;;;;6.45;47.27;96551.34;4932187;29;20040;-86
2021/01/14 11:16:28;;;;;;;27.33;13.80;;;;;;;6.60;45.14;96558.38;4930957;29;20111;-86
2021/01/14 11:18:56;;;;;;;42.30;19.05;;;;;;;6.18;49.07;96553.03;4899184;29;20039;-86
2021/01/14 11:21:32;;;;;;;20.70;9.82;;;;;;;6.25;47.00;96551.69;4899950;29;20036;-86
2021/01/14 11:23:58;;;;;;;23.25;11.15;;;;;;;6.25;48.04;96552.56;4896993;29;20429;-86
2021/01/14 11:26:24;;;;;;;16.70;8.75;;;;;;;5.99;46.57;96535.56;4877032;29;20068;-84
2021/01/14 11:28:51;;;;;;;59.30;29.58;;;;;;;5.97;46.48;96548.06;4888462;29;20127;-87
2021/01/14 11:31:24;;;;;;;47.20;22.48;;;;;;;5.86;48.99;96544.34;4871124;29;20503;-87
2021/01/14 11:33:50;;;;;;;51.30;23.45;;;;;;;5.97;44.48;96540.09;4890577;29;20100;-85
2021/01/14 11:36:20;;;;;;;13.90;7.43;;;;;;;5.75;43.77;96529.00;4898548;29;20056;-87
2021/01/14 11:38:47;;;;;;;21.15;10.07;;;;;;;5.65;43.90;96519.91;4888080;29;20103;-85